createdAt,value
2022-08-04T00:00:08.824Z,19.77
2022-08-04T00:03:02.893Z,19.87
2022-08-04T00:06:04.451Z,19.81
2022-08-04T00:09:00.387Z,19.83
2022-08-04T00:11:49.007Z,19.82
2022-08-04T00:14:37.942Z,19.79
2022-08-04T00:17:29.053Z,19.78
2022-08-04T00:20:19.017Z,19.69
2022-08-04T00:23:05.945Z,19.74
2022-08-04T00:25:51.398Z,19.69
2022-08-04T00:28:38.481Z,19.65
2022-08-04T00:31:53.766Z,19.48
2022-08-04T00:34:31.826Z,19.66
2022-08-04T00:37:20.891Z,19.62
2022-08-04T00:40:26.447Z,19.59
2022-08-04T00:43:26.298Z,19.55
2022-08-04T00:46:17.026Z,19.51
2022-08-04T00:49:36.681Z,19.53
2022-08-04T00:52:36.393Z,19.35
2022-08-04T00:55:53.543Z,19.43
2022-08-04T00:58:50.770Z,19.44
2022-08-04T01:01:58.599Z,19.44
2022-08-04T01:05:15.322Z,19.48
2022-08-04T01:08:06.229Z,19.45
2022-08-04T01:11:07.744Z,19.36
2022-08-04T01:13:58.385Z,19.25
2022-08-04T01:16:56.533Z,19.34
2022-08-04T01:20:01.286Z,19.31
2022-08-04T01:23:07.980Z,19.15
2022-08-04T01:25:58.932Z,19.34
2022-08-04T01:29:08.555Z,19.30
2022-08-04T01:32:13.884Z,19.21
2022-08-04T01:35:09.967Z,19.26
2022-08-04T01:38:24.948Z,19.26
2022-08-04T01:41:14.312Z,19.28
2022-08-04T01:44:01.658Z,19.29
2022-08-04T01:46:50.181Z,19.28
2022-08-04T01:49:40.325Z,19.28
2022-08-04T01:52:27.976Z,19.16
2022-08-04T01:55:15.470Z,19.17
2022-08-04T01:58:01.443Z,19.26
2022-08-04T02:00:57.218Z,19.28
2022-08-04T02:04:20.160Z,19.27
2022-08-04T02:07:17.069Z,19.29
2022-08-04T02:10:08.150Z,19.26
2022-08-04T02:13:06.195Z,19.27
2022-08-04T02:16:29.087Z,19.26
2022-08-04T02:19:32.594Z,19.27
2022-08-04T02:22:21.898Z,19.27
2022-08-04T02:25:09.038Z,19.29
2022-08-04T02:28:08.956Z,19.29
2022-08-04T02:31:08.433Z,19.24
2022-08-04T02:34:22.154Z,19.21
2022-08-04T02:37:11.944Z,19.19
2022-08-04T02:40:00.223Z,19.22
2022-08-04T02:42:46.150Z,19.18
2022-08-04T02:45:35.922Z,19.23
2022-08-04T02:48:31.129Z,19.13
2022-08-04T02:51:21.532Z,19.24
2022-08-04T02:54:06.846Z,19.20
2022-08-04T02:56:55.649Z,19.23
2022-08-04T02:59:53.673Z,19.21
2022-08-04T03:03:02.541Z,19.12
2022-08-04T03:06:01.565Z,19.22
2022-08-04T03:08:46.952Z,19.22
2022-08-04T03:11:53.254Z,19.18
2022-08-04T03:15:16.660Z,19.20
2022-08-04T03:18:20.252Z,19.18
2022-08-04T03:21:36.144Z,19.16
2022-08-04T03:24:57.701Z,19.11
2022-08-04T03:28:00.824Z,19.17
2022-08-04T03:30:57.769Z,19.03
2022-08-04T03:34:08.718Z,19.11
2022-08-04T03:37:12.055Z,19.08
2022-08-04T03:40:25.841Z,19.08
2022-08-04T03:43:57.314Z,19.06
2022-08-04T03:46:53.153Z,19.05
2022-08-04T03:49:40.716Z,18.87
2022-08-04T03:53:08.811Z,19.09
2022-08-04T03:56:15.607Z,19.05
2022-08-04T03:59:22.072Z,18.90
2022-08-04T04:02:41.163Z,19.01
2022-08-04T04:05:41.744Z,19.01
2022-08-04T04:08:59.416Z,18.98
2022-08-04T04:12:09.649Z,18.72
2022-08-04T04:15:01.875Z,18.91
2022-08-04T04:18:05.108Z,18.92
2022-08-04T04:20:59.172Z,18.84
2022-08-04T04:24:11.580Z,18.83
2022-08-04T04:27:19.585Z,18.82
2022-08-04T04:30:29.213Z,18.80
2022-08-04T04:33:25.696Z,18.77
2022-08-04T04:36:42.641Z,18.77
2022-08-04T04:39:42.993Z,18.78
2022-08-04T04:42:52.396Z,18.76
2022-08-04T04:45:49.484Z,18.72
2022-08-04T04:48:53.207Z,18.70
2022-08-04T04:51:44.505Z,18.54
2022-08-04T04:55:00.092Z,18.63
2022-08-04T04:57:53.870Z,18.70
2022-08-04T05:01:05.717Z,18.68
2022-08-04T05:03:53.999Z,18.73
2022-08-04T05:06:39.014Z,18.72
2022-08-04T05:10:17.719Z,18.58
2022-08-04T05:14:38.593Z,18.79
2022-08-04T05:16:46.676Z,18.79
2022-08-04T05:19:34.913Z,18.69
2022-08-04T05:22:29.517Z,18.80
2022-08-04T05:25:21.271Z,18.79
2022-08-04T05:28:12.261Z,18.78
2022-08-04T05:31:01.558Z,18.73
2022-08-04T05:33:57.025Z,18.66
2022-08-04T05:36:49.598Z,18.55
2022-08-04T05:39:46.405Z,18.62
2022-08-04T05:42:35.792Z,18.59
2022-08-04T05:45:23.520Z,18.54
2022-08-04T05:48:09.864Z,18.50
2022-08-04T05:51:00.737Z,18.54
2022-08-04T05:53:47.304Z,18.50
2022-08-04T05:56:34.140Z,18.57
2022-08-04T05:59:20.577Z,18.63
2022-08-04T06:02:07.988Z,18.71
2022-08-04T06:04:54.168Z,18.82
2022-08-04T06:08:12.624Z,18.82
2022-08-04T06:10:46.488Z,18.83
2022-08-04T06:13:48.284Z,18.84
2022-08-04T06:16:39.437Z,18.86
2022-08-04T06:19:59.457Z,18.83
2022-08-04T06:22:39.709Z,18.88
2022-08-04T06:25:39.393Z,18.83
2022-08-04T06:28:28.016Z,18.82
2022-08-04T06:32:27.285Z,18.90
2022-08-04T06:34:28.366Z,18.98
2022-08-04T06:37:40.733Z,18.90
2022-08-04T06:40:31.656Z,19.09
2022-08-04T06:43:18.930Z,19.10
2022-08-04T06:46:07.007Z,19.07
2022-08-04T06:48:52.964Z,19.32
2022-08-04T06:51:48.963Z,19.34
2022-08-04T06:54:34.912Z,19.38
2022-08-04T06:57:23.808Z,19.35
2022-08-04T07:00:12.507Z,19.37
2022-08-04T07:02:59.414Z,19.49
2022-08-04T07:05:47.258Z,19.65
2022-08-04T07:08:32.638Z,19.69
2022-08-04T07:11:19.713Z,19.65
2022-08-04T07:14:05.492Z,19.75
2022-08-04T07:16:51.880Z,19.84
2022-08-04T07:19:38.362Z,20.05
2022-08-04T07:22:25.920Z,20.03
2022-08-04T07:25:13.145Z,20.08
2022-08-04T07:27:58.560Z,20.05
2022-08-04T07:30:45.136Z,20.05
2022-08-04T07:33:30.375Z,20.05
2022-08-04T07:36:15.924Z,20.03
2022-08-04T07:39:01.012Z,20.17
2022-08-04T07:41:49.019Z,20.32
2022-08-04T07:44:35.063Z,20.36
2022-08-04T07:47:24.970Z,20.26
2022-08-04T07:50:12.457Z,20.50
2022-08-04T07:53:22.466Z,20.61
2022-08-04T07:56:03.770Z,20.67
2022-08-04T07:58:50.348Z,20.61
2022-08-04T08:01:37.162Z,20.54
2022-08-04T08:04:22.866Z,20.81
2022-08-04T08:07:08.399Z,21.01
2022-08-04T08:09:53.614Z,20.87
2022-08-04T08:12:51.404Z,20.82
2022-08-04T08:15:38.022Z,20.94
2022-08-04T08:18:23.023Z,21.01
2022-08-04T08:21:08.411Z,21.11
2022-08-04T08:23:54.178Z,21.28
2022-08-04T08:26:41.358Z,21.40
2022-08-04T08:29:26.936Z,21.50
2022-08-04T08:32:14.091Z,21.34
2022-08-04T08:34:59.247Z,21.48
2022-08-04T08:37:50.746Z,21.38
2022-08-04T08:40:59.444Z,21.52
2022-08-04T08:44:05.122Z,21.56
2022-08-04T08:47:20.028Z,21.70
2022-08-04T08:50:41.621Z,21.97
2022-08-04T08:53:45.185Z,22.14
2022-08-04T08:56:46.022Z,21.95
2022-08-04T08:59:57.446Z,22.05
2022-08-04T09:03:19.801Z,21.94
2022-08-04T09:06:17.232Z,22.01
2022-08-04T09:09:30.589Z,22.33
2022-08-04T09:12:27.912Z,22.43
2022-08-04T09:15:18.620Z,22.36
2022-08-04T09:18:11.793Z,22.48
2022-08-04T09:21:17.312Z,22.27
2022-08-04T09:24:35.816Z,22.01
2022-08-04T09:27:44.221Z,22.26
2022-08-04T09:30:52.373Z,22.42
2022-08-04T09:33:44.918Z,22.28
2022-08-04T09:36:53.600Z,22.42
2022-08-04T09:39:56.570Z,22.60
2022-08-04T09:42:55.418Z,22.82
2022-08-04T09:45:54.559Z,22.99
2022-08-04T09:48:44.486Z,23.02
2022-08-04T09:51:56.830Z,23.14
2022-08-04T09:54:59.228Z,23.59
2022-08-04T09:58:02.186Z,23.65
2022-08-04T10:00:53.735Z,23.48
2022-08-04T10:03:54.985Z,23.44
2022-08-04T10:06:43.196Z,23.29
2022-08-04T10:10:03.726Z,23.48
2022-08-04T10:13:06.874Z,23.67
2022-08-04T10:16:16.167Z,23.90
2022-08-04T10:19:14.810Z,23.80
2022-08-04T10:22:28.025Z,23.92
2022-08-04T10:25:37.531Z,24.01
2022-08-04T10:29:03.566Z,24.43
2022-08-04T10:31:57.307Z,24.43
2022-08-04T10:35:07.485Z,24.62
2022-08-04T10:38:02.513Z,24.40
2022-08-04T10:41:00.274Z,24.83
2022-08-04T10:43:59.869Z,24.88
2022-08-04T10:49:48.745Z,25.07
2022-08-04T10:52:48.233Z,24.91
2022-08-04T10:56:06.552Z,25.13
2022-08-04T10:58:52.945Z,25.26
2022-08-04T11:02:02.010Z,25.54
2022-08-04T11:04:58.689Z,25.71
2022-08-04T11:07:47.226Z,25.85
2022-08-04T11:10:47.021Z,25.92
2022-08-04T11:13:47.089Z,26.01
2022-08-04T11:16:46.673Z,26.20
2022-08-04T11:19:42.720Z,26.24
2022-08-04T11:22:38.703Z,26.08
2022-08-04T11:25:29.626Z,26.12
2022-08-04T11:28:25.320Z,26.45
2022-08-04T11:31:13.185Z,26.76
2022-08-04T11:34:09.845Z,27.14
2022-08-04T11:37:02.942Z,27.35
2022-08-04T11:40:13.510Z,26.93
2022-08-04T11:43:04.771Z,26.82
2022-08-04T11:46:07.257Z,26.96
2022-08-04T11:49:02.425Z,26.64
2022-08-04T11:51:51.473Z,26.32
2022-08-04T11:54:38.438Z,26.12
2022-08-04T11:57:35.173Z,26.18
2022-08-04T12:00:25.126Z,26.57
2022-08-04T12:03:28.749Z,26.91
2022-08-04T12:06:25.352Z,26.77
2022-08-04T12:09:32.742Z,27.17
2022-08-04T12:12:37.972Z,26.99
2022-08-04T12:15:31.071Z,26.88
2022-08-04T12:18:22.354Z,27.03
2022-08-04T12:21:18.913Z,27.31
2022-08-04T12:24:17.562Z,27.80
2022-08-04T12:27:14.152Z,28.07
2022-08-04T12:30:59.687Z,28.45
2022-08-04T12:33:20.485Z,28.44
2022-08-04T12:36:20.975Z,27.87
2022-08-04T12:39:17.802Z,27.66
2022-08-04T12:42:21.446Z,27.90
2022-08-04T12:45:11.343Z,28.27
2022-08-04T12:48:01.073Z,28.25
2022-08-04T12:50:50.015Z,27.87
2022-08-04T12:53:50.902Z,28.14
2022-08-04T12:56:38.842Z,27.85
2022-08-04T12:59:24.163Z,27.83
2022-08-04T13:02:16.899Z,28.17
2022-08-04T13:05:05.756Z,28.03
2022-08-04T13:07:53.734Z,27.54
2022-08-04T13:10:45.610Z,27.33
2022-08-04T13:13:32.911Z,27.35
2022-08-04T13:16:18.230Z,28.00
2022-08-04T13:19:09.413Z,28.48
2022-08-04T13:22:03.023Z,28.84
2022-08-04T13:24:56.624Z,29.03
2022-08-04T13:27:57.791Z,29.21
2022-08-04T13:30:46.173Z,29.15
2022-08-04T13:33:37.722Z,28.99
2022-08-04T13:36:28.838Z,28.39
2022-08-04T13:39:18.786Z,27.99
2022-08-04T13:42:09.292Z,27.71
2022-08-04T13:44:59.729Z,27.54
2022-08-04T13:47:48.629Z,27.71
2022-08-04T13:50:35.210Z,27.64
2022-08-04T13:53:22.054Z,27.75
2022-08-04T13:56:10.483Z,28.36
2022-08-04T13:58:57.375Z,28.38
2022-08-04T14:01:58.736Z,28.33
2022-08-04T14:04:51.840Z,28.95
2022-08-04T14:07:50.407Z,29.45
2022-08-04T14:10:36.906Z,29.34
2022-08-04T14:13:41.444Z,29.23
2022-08-04T14:16:27.493Z,29.48
2022-08-04T14:19:12.768Z,29.49
2022-08-04T14:21:58.004Z,28.91
2022-08-04T14:24:43.429Z,28.54
2022-08-04T14:27:29.004Z,28.26
2022-08-04T14:30:29.308Z,28.25
2022-08-04T14:34:03.684Z,28.07
2022-08-04T14:36:22.423Z,27.98
2022-08-04T14:39:12.500Z,27.63
2022-08-04T14:41:57.738Z,27.60
2022-08-04T14:44:56.478Z,28.13
2022-08-04T14:47:52.943Z,28.47
2022-08-04T14:50:46.551Z,28.79
2022-08-04T14:53:31.866Z,29.01
2022-08-04T14:56:37.458Z,28.99
2022-08-04T14:59:22.409Z,29.14
2022-08-04T15:02:08.490Z,29.31
2022-08-04T15:04:53.593Z,29.31
2022-08-04T15:07:40.284Z,29.34
2022-08-04T15:10:25.957Z,29.51
2022-08-04T15:13:13.274Z,29.57
2022-08-04T15:16:06.459Z,29.03
2022-08-04T15:18:54.855Z,28.63
2022-08-04T15:21:42.261Z,28.53
2022-08-04T15:24:27.259Z,28.47
2022-08-04T15:27:14.174Z,28.37
2022-08-04T15:30:02.970Z,28.33
2022-08-04T15:32:56.677Z,28.41
2022-08-04T15:35:46.113Z,28.39
2022-08-04T15:38:42.511Z,28.19
2022-08-04T15:41:46.313Z,28.02
2022-08-04T15:45:03.313Z,28.04
2022-08-04T15:48:02.707Z,27.92
2022-08-04T15:50:59.979Z,27.99
2022-08-04T15:54:24.399Z,27.94
2022-08-04T15:57:14.348Z,27.82
2022-08-04T16:00:01.270Z,27.73
2022-08-04T16:02:46.966Z,27.52
2022-08-04T16:05:35.546Z,27.39
2022-08-04T16:08:20.792Z,27.36
2022-08-04T16:11:05.961Z,27.30
2022-08-04T16:14:02.612Z,27.25
2022-08-04T16:16:50.036Z,27.23
2022-08-04T16:19:55.079Z,27.12
2022-08-04T16:22:41.355Z,27.08
2022-08-04T16:25:51.914Z,27.11
2022-08-04T16:28:38.478Z,27.08
2022-08-04T16:31:23.499Z,27.02
2022-08-04T16:34:48.205Z,26.89
2022-08-04T16:37:16.775Z,26.87
2022-08-04T16:40:23.538Z,26.83
2022-08-04T16:43:19.006Z,26.71
2022-08-04T16:46:06.959Z,26.79
2022-08-04T16:49:07.289Z,26.68
2022-08-04T16:51:53.011Z,26.60
2022-08-04T16:54:38.358Z,26.49
2022-08-04T16:57:23.766Z,26.39
2022-08-04T17:00:09.802Z,26.33
2022-08-04T17:02:54.721Z,26.29
2022-08-04T17:05:40.713Z,26.52
2022-08-04T17:08:30.209Z,26.58
2022-08-04T17:11:16.871Z,26.57
2022-08-04T17:14:05.880Z,26.49
2022-08-04T17:16:53.119Z,26.39
2022-08-04T17:19:38.513Z,26.31
2022-08-04T17:22:23.880Z,26.30
2022-08-04T17:25:09.737Z,26.26
2022-08-04T17:28:08.930Z,26.16
2022-08-04T17:31:08.278Z,26.06
2022-08-04T17:33:56.535Z,26.03
2022-08-04T17:36:42.173Z,25.98
2022-08-04T17:39:38.293Z,25.86
2022-08-04T17:42:32.730Z,25.82
2022-08-04T17:48:24.195Z,25.64
2022-08-04T17:51:16.755Z,25.60
2022-08-04T17:54:04.623Z,25.45
2022-08-04T17:56:53.438Z,25.34
2022-08-04T17:59:58.007Z,25.29
2022-08-04T18:02:53.512Z,25.21
2022-08-04T18:06:03.548Z,25.17
2022-08-04T18:08:45.870Z,25.26
2022-08-04T18:11:41.501Z,25.07
2022-08-04T18:14:36.476Z,25.00
2022-08-04T18:18:20.482Z,25.00
2022-08-04T18:20:37.942Z,24.97
2022-08-04T18:23:31.429Z,25.08
2022-08-04T18:26:18.225Z,24.98
2022-08-04T18:29:09.509Z,24.99
2022-08-04T18:32:15.221Z,24.96
2022-08-04T18:35:07.578Z,24.93
2022-08-04T18:38:06.647Z,24.90
2022-08-04T18:40:54.700Z,24.83
2022-08-04T18:43:40.885Z,24.75
2022-08-04T18:50:49.742Z,24.65
2022-08-04T18:52:45.423Z,24.52
2022-08-04T18:55:55.457Z,24.59
2022-08-04T18:58:36.697Z,24.48
2022-08-04T19:01:22.122Z,24.51
2022-08-04T19:04:34.248Z,24.49
2022-08-04T19:07:29.471Z,24.40
2022-08-04T19:10:27.264Z,24.28
2022-08-04T19:13:24.878Z,24.15
2022-08-04T19:16:16.593Z,24.11
2022-08-04T19:19:06.488Z,24.01
2022-08-04T19:22:01.263Z,23.91
2022-08-04T19:24:48.951Z,23.81
2022-08-04T19:27:38.718Z,23.82
2022-08-04T19:30:25.320Z,23.81
2022-08-04T19:33:11.233Z,23.67
2022-08-04T19:35:56.274Z,23.76
2022-08-04T19:38:43.429Z,23.74
2022-08-04T19:41:33.717Z,23.59
2022-08-04T19:44:43.861Z,23.22
2022-08-04T19:48:13.078Z,22.95
2022-08-04T19:50:35.183Z,22.77
2022-08-04T19:53:37.018Z,22.75
2022-08-04T19:56:25.793Z,22.66
2022-08-04T19:59:11.303Z,22.51
2022-08-04T20:01:56.593Z,22.55
2022-08-04T20:04:41.867Z,22.43
2022-08-04T20:07:28.247Z,22.39
2022-08-04T20:10:14.867Z,22.36
2022-08-04T20:13:00.036Z,22.15
2022-08-04T20:15:57.678Z,22.05
2022-08-04T20:21:54.849Z,22.12
2022-08-04T20:24:48.025Z,22.06
2022-08-04T20:27:59.434Z,21.92
2022-08-04T20:30:47.565Z,21.95
2022-08-04T20:33:33.974Z,21.87
2022-08-04T20:36:19.320Z,21.89
2022-08-04T20:39:04.623Z,21.86
2022-08-04T20:41:54.846Z,21.74
2022-08-04T20:44:46.233Z,21.69
2022-08-04T20:47:35.212Z,21.71
2022-08-04T20:50:29.806Z,21.65
2022-08-04T20:53:16.595Z,21.66
2022-08-04T20:56:02.552Z,21.63
2022-08-04T20:58:47.777Z,21.48
2022-08-04T21:01:33.177Z,21.54
2022-08-04T21:04:45.571Z,21.50
2022-08-04T21:07:36.390Z,21.48
2022-08-04T21:10:27.447Z,21.44
2022-08-04T21:13:12.472Z,21.42
2022-08-04T21:15:59.290Z,21.38
2022-08-04T21:18:45.145Z,21.34
2022-08-04T21:21:35.706Z,21.19
2022-08-04T21:24:25.927Z,20.97
2022-08-04T21:27:12.211Z,21.10
2022-08-04T21:29:57.807Z,21.04
2022-08-04T21:32:45.198Z,21.07
2022-08-04T21:35:38.411Z,21.04
2022-08-04T21:38:27.850Z,21.02
2022-08-04T21:41:13.758Z,21.02
2022-08-04T21:44:09.832Z,20.98
2022-08-04T21:46:55.646Z,20.81
2022-08-04T21:49:55.970Z,20.86
2022-08-04T21:52:42.558Z,20.83
2022-08-04T21:56:05.765Z,20.68
2022-08-04T21:58:33.016Z,20.77
2022-08-04T22:01:18.439Z,20.76
2022-08-04T22:04:23.319Z,20.69
2022-08-04T22:07:08.939Z,20.62
2022-08-04T22:10:00.045Z,20.59
2022-08-04T22:12:45.521Z,20.46
2022-08-04T22:16:03.871Z,20.46
2022-08-04T22:18:42.775Z,20.43
2022-08-04T22:21:30.634Z,20.43
2022-08-04T22:24:15.713Z,20.28
2022-08-04T22:27:00.965Z,20.34
2022-08-04T22:29:46.234Z,20.22
2022-08-04T22:32:32.431Z,20.26
2022-08-04T22:35:35.830Z,20.23
2022-08-04T22:38:42.056Z,20.14
2022-08-04T22:41:34.241Z,20.14
2022-08-04T22:44:34.540Z,20.13
2022-08-04T22:47:23.481Z,20.07
2022-08-04T22:50:27.503Z,20.04
2022-08-04T22:53:18.092Z,20.03
2022-08-04T22:56:09.782Z,20.01
2022-08-04T22:58:57.789Z,19.99
2022-08-04T23:01:58.119Z,19.99
2022-08-04T23:04:49.003Z,19.86
2022-08-04T23:07:38.053Z,19.92
2022-08-04T23:10:34.901Z,19.88
2022-08-04T23:13:20.612Z,19.88
2022-08-04T23:16:10.079Z,19.89
2022-08-04T23:18:55.564Z,19.71
2022-08-04T23:21:47.889Z,19.76
2022-08-04T23:24:47.796Z,19.67
2022-08-04T23:27:40.326Z,19.59
2022-08-04T23:30:29.786Z,19.54
2022-08-04T23:33:15.512Z,19.55
2022-08-04T23:36:00.832Z,19.46
2022-08-04T23:38:46.576Z,19.37
2022-08-04T23:41:53.659Z,19.25
2022-08-04T23:44:39.020Z,19.13
2022-08-04T23:48:15.398Z,19.15
2022-08-04T23:50:31.461Z,19.09
2022-08-04T23:53:18.792Z,19.01
2022-08-04T23:56:09.570Z,19.03
2022-08-04T23:59:04.929Z,19.03
